Time;durP1;ratioP1;P1;durP2;ratioP2;P2;SDS_P1;SDS_P2;PMS_P1;PMS_P2;Temp;Humidity;BMP_temperature;BMP_pressure;BME280_temperature;BME280_humidity;BME280_pressure;Samples;Min_cycle;Max_cycle;Signal;HPM_P1;HPM_P2
2023/01/07 00:07:34;;;;;;;59.90;24.60;;;;;;;3.43;100.00;100548.75;662123;1296;139169;-82
2023/01/07 00:22:37;;;;;;;56.40;23.90;;;;;;;3.46;100.00;100562.73;662205;1308;139079;-82
2023/01/07 00:37:49;;;;;;;63.40;23.40;;;;;;;3.48;100.00;100558.48;662299;1309;138623;-82
2023/01/07 00:52:53;;;;;;;58.00;23.70;;;;;;;3.55;100.00;100559.00;662147;1307;139009;-80
2023/01/07 01:07:57;;;;;;;58.40;28.80;;;;;;;3.66;100.00;100560.45;661885;1310;139382;-80
2023/01/07 01:23:00;;;;;;;54.30;22.20;;;;;;;3.78;100.00;100558.26;661989;1310;139799;-79
2023/01/07 01:38:03;;;;;;;71.40;31.50;;;;;;;3.77;100.00;100558.83;661744;1310;139527;-78
2023/01/07 01:53:13;;;;;;;52.30;21.90;;;;;;;3.75;100.00;100559.60;661709;1310;139026;-78
2023/01/07 02:08:21;;;;;;;49.00;22.80;;;;;;;3.73;100.00;100554.37;661590;1288;138991;-77
2023/01/07 02:23:50;;;;;;;47.70;20.60;;;;;;;3.80;100.00;100552.25;661610;1302;138991;-77
2023/01/07 02:39:23;;;;;;;48.50;21.60;;;;;;;3.80;100.00;100552.92;661476;1296;138882;-77
2023/01/07 02:54:28;;;;;;;45.20;20.20;;;;;;;3.86;100.00;100550.37;661923;1309;138981;-77
2023/01/07 03:09:48;;;;;;;41.30;17.70;;;;;;;3.87;100.00;100551.54;661213;1310;139656;-77
2023/01/07 03:24:55;;;;;;;39.10;16.90;;;;;;;3.75;100.00;100558.73;661603;1305;138991;-77
2023/01/07 03:39:59;;;;;;;40.60;16.40;;;;;;;3.68;100.00;100572.97;661717;1306;138807;-77
2023/01/07 03:55:04;;;;;;;37.60;16.60;;;;;;;3.59;100.00;100574.67;661827;1310;139632;-77
2023/01/07 04:10:08;;;;;;;46.10;20.70;;;;;;;3.51;100.00;100582.20;661629;1305;139657;-76
2023/01/07 04:25:11;;;;;;;52.70;23.20;;;;;;;3.66;100.00;100595.95;661771;1309;139673;-77
2023/01/07 04:40:15;;;;;;;45.50;19.50;;;;;;;3.86;100.00;100591.88;661728;1310;139253;-77
2023/01/07 04:55:18;;;;;;;58.00;26.30;;;;;;;3.97;100.00;100596.14;661738;1296;138911;-76
2023/01/07 05:10:23;;;;;;;45.00;20.50;;;;;;;4.06;100.00;100604.67;661391;1305;139338;-77
2023/01/07 05:25:29;;;;;;;47.10;24.60;;;;;;;4.21;100.00;100606.26;661461;1301;139797;-77
2023/01/07 05:40:32;;;;;;;44.10;19.30;;;;;;;4.38;100.00;100608.05;663321;1277;138795;-76
2023/01/07 05:55:37;;;;;;;39.30;18.90;;;;;;;4.45;100.00;100615.28;661794;1296;139859;-77
2023/01/07 06:10:44;;;;;;;94.70;42.10;;;;;;;4.42;100.00;100629.48;663210;1288;139929;-77
2023/01/07 06:25:47;;;;;;;67.40;30.40;;;;;;;4.32;100.00;100636.27;663037;1294;139364;-76
2023/01/07 06:40:50;;;;;;;69.10;30.70;;;;;;;4.24;100.00;100644.67;661932;1310;138879;-77
2023/01/07 06:55:53;;;;;;;69.80;32.70;;;;;;;4.31;100.00;100659.67;661717;1310;139598;-76
2023/01/07 07:10:57;;;;;;;85.50;37.10;;;;;;;4.31;100.00;100679.10;661882;1304;138867;-77
2023/01/07 07:26:00;;;;;;;97.70;38.40;;;;;;;4.34;100.00;100689.13;661502;1304;139268;-77
2023/01/07 07:41:10;;;;;;;111.80;43.80;;;;;;;4.56;100.00;100695.36;661824;1310;171744;-77
2023/01/07 07:56:15;;;;;;;173.60;60.70;;;;;;;4.63;100.00;100701.56;661427;1304;140050;-76
2023/01/07 08:11:23;;;;;;;93.50;39.30;;;;;;;4.72;100.00;100724.98;662029;1296;140408;-77
2023/01/07 08:26:33;;;;;;;83.00;46.90;;;;;;;4.94;100.00;100733.40;663271;1302;139073;-77
2023/01/07 08:41:36;;;;;;;82.90;40.00;;;;;;;5.11;100.00;100739.04;662041;1299;139757;-78
2023/01/07 08:56:39;;;;;;;63.00;26.60;;;;;;;5.31;100.00;100727.48;661679;1310;138938;-78
2023/01/07 09:11:45;;;;;;;136.50;49.80;;;;;;;5.56;100.00;100740.27;662106;1305;140385;-80
2023/01/07 09:26:50;;;;;;;475.60;285.00;;;;;;;5.39;100.00;100740.36;661441;1296;139092;-79
2023/01/07 09:42:01;;;;;;;208.20;158.40;;;;;;;5.38;100.00;100746.67;661661;1310;140347;-78
2023/01/07 09:57:05;;;;;;;109.40;46.50;;;;;;;5.37;100.00;100749.20;663208;1303;140736;-78
2023/01/07 10:12:28;;;;;;;59.50;22.50;;;;;;;5.39;100.00;100733.61;663402;1291;139744;-78
2023/01/07 10:27:36;;;;;;;55.60;25.30;;;;;;;5.34;100.00;100732.73;663411;1287;139670;-79
2023/01/07 10:42:49;;;;;;;53.10;24.30;;;;;;;5.33;100.00;100725.48;662095;1285;139622;-77
2023/01/07 10:57:52;;;;;;;62.00;28.10;;;;;;;5.16;100.00;100708.58;661960;1288;139454;-77
2023/01/07 11:13:01;;;;;;;66.00;27.50;;;;;;;5.12;100.00;100720.08;661584;1312;140208;-78
2023/01/07 11:28:17;;;;;;;71.80;29.10;;;;;;;5.40;100.00;100709.95;663655;1287;139590;-78
2023/01/07 11:43:22;;;;;;;60.60;26.20;;;;;;;5.68;100.00;100699.79;661925;1298;140314;-78
2023/01/07 11:58:28;;;;;;;173.40;60.80;;;;;;;5.70;100.00;100674.86;663383;1303;139135;-78
2023/01/07 12:13:34;;;;;;;136.70;53.30;;;;;;;5.76;100.00;100661.45;663643;1294;139081;-79
2023/01/07 12:29:18;;;;;;;57.20;26.40;;;;;;;5.96;100.00;100659.02;663678;1292;139606;-79
2023/01/07 12:44:21;;;;;;;57.90;29.10;;;;;;;5.84;100.00;100662.87;662171;1310;139064;-78
2023/01/07 12:59:35;;;;;;;47.00;22.30;;;;;;;5.81;100.00;100653.33;662362;1289;139080;-79
2023/01/07 13:14:53;;;;;;;48.50;21.70;;;;;;;5.96;100.00;100643.90;661914;1292;139638;-79
2023/01/07 13:30:22;;;;;;;260.60;97.90;;;;;;;6.10;100.00;100641.31;662503;1305;138561;-79
2023/01/07 13:45:30;;;;;;;103.60;48.80;;;;;;;6.21;100.00;100650.20;662362;1310;139474;-79
2023/01/07 14:00:38;;;;;;;;;;;;;;;6.18;100.00;100663.23;662535;1310;142508;-80
2023/01/07 14:15:47;;;;;;;299.30;89.70;;;;;;;6.19;100.00;100670.67;662015;1306;124934;-79
2023/01/07 14:30:52;;;;;;;271.20;80.00;;;;;;;6.20;100.00;100674.55;663646;1303;140489;-78
2023/01/07 14:45:56;;;;;;;242.10;68.90;;;;;;;6.14;100.00;100687.05;661907;1309;141205;-78
2023/01/07 15:01:21;;;;;;;129.10;47.40;;;;;;;6.25;100.00;100696.15;661919;1310;139796;-80
2023/01/07 15:16:25;;;;;;;270.30;84.40;;;;;;;6.20;100.00;100692.29;662393;1296;138847;-79
2023/01/07 15:31:38;;;;;;;224.30;72.10;;;;;;;6.36;100.00;100690.25;662021;1308;139184;-80
2023/01/07 15:46:42;;;;;;;95.30;37.40;;;;;;;6.38;100.00;100677.96;662358;1310;139589;-78
2023/01/07 16:01:49;;;;;;;171.80;57.40;;;;;;;6.41;100.00;100681.39;661733;1310;138947;-79
2023/01/07 16:17:15;;;;;;;134.00;54.60;;;;;;;6.42;100.00;100674.41;661781;1302;140532;-78
2023/01/07 16:32:21;;;;;;;147.20;48.10;;;;;;;6.41;100.00;100675.83;662153;1299;139403;-78
2023/01/07 16:47:32;;;;;;;91.00;34.80;;;;;;;6.37;100.00;100659.45;661987;1303;139693;-79
2023/01/07 17:02:52;;;;;;;154.20;57.50;;;;;;;6.36;100.00;100645.38;662324;1296;139800;-79
2023/01/07 17:18:15;;;;;;;560.20;278.50;;;;;;;6.28;100.00;100634.09;663721;1303;139013;-79
2023/01/07 17:33:22;;;;;;;121.10;58.70;;;;;;;6.30;100.00;100633.09;662245;1310;139778;-78
2023/01/07 17:48:26;;;;;;;106.60;47.30;;;;;;;6.15;100.00;100618.97;663754;1288;139782;-78
2023/01/07 18:03:30;;;;;;;137.60;49.30;;;;;;;6.21;100.00;100610.38;662282;1301;140353;-78
2023/01/07 18:18:33;;;;;;;106.60;43.30;;;;;;;6.26;100.00;100607.33;662121;1296;139109;-78
2023/01/07 18:33:37;;;;;;;97.00;38.50;;;;;;;6.23;100.00;100598.63;661763;1305;139455;-79
2023/01/07 18:48:41;;;;;;;112.40;40.20;;;;;;;6.31;100.00;100604.71;662136;1294;138845;-79
2023/01/07 19:03:44;;;;;;;107.70;39.60;;;;;;;6.34;100.00;100598.49;661635;1305;139044;-79
2023/01/07 19:18:48;;;;;;;80.80;33.80;;;;;;;6.29;100.00;100589.23;661595;1310;140931;-78
2023/01/07 19:33:52;;;;;;;89.10;37.10;;;;;;;6.37;100.00;100588.38;662185;1307;139868;-78
2023/01/07 19:48:55;;;;;;;76.90;33.60;;;;;;;6.41;100.00;100575.21;661932;1310;147210;-78
2023/01/07 20:03:58;;;;;;;114.30;46.90;;;;;;;6.41;100.00;100560.67;663540;1295;140334;-79
2023/01/07 20:19:02;;;;;;;164.70;67.80;;;;;;;6.45;100.00;100562.13;663306;1297;138900;-78
2023/01/07 20:34:05;;;;;;;109.10;43.40;;;;;;;6.48;100.00;100549.09;661588;1304;139788;-78
2023/01/07 20:49:11;;;;;;;108.90;47.80;;;;;;;6.49;100.00;100530.97;662077;1296;138786;-79
2023/01/07 21:04:14;;;;;;;100.20;39.50;;;;;;;6.46;100.00;100529.36;661963;1288;139169;-79
2023/01/07 21:19:18;;;;;;;110.90;48.70;;;;;;;6.50;100.00;100532.42;661970;1307;139504;-79
2023/01/07 21:34:21;;;;;;;94.60;36.80;;;;;;;6.53;100.00;100524.75;662263;1303;139985;-79
2023/01/07 21:49:25;;;;;;;141.30;53.80;;;;;;;6.63;100.00;100520.92;662039;1309;140285;-79
2023/01/07 22:04:28;;;;;;;86.90;38.20;;;;;;;6.64;100.00;100519.48;662398;1310;139696;-79
2023/01/07 22:19:31;;;;;;;86.80;35.60;;;;;;;6.69;100.00;100522.45;662331;1310;139673;-79
2023/01/07 22:34:35;;;;;;;96.60;37.80;;;;;;;6.81;100.00;100508.43;662170;1295;139224;-78
2023/01/07 22:49:39;;;;;;;101.10;35.60;;;;;;;6.79;100.00;100496.77;662189;1309;141184;-79
2023/01/07 23:04:42;;;;;;;115.60;41.80;;;;;;;6.83;100.00;100483.46;661798;1305;139491;-79
2023/01/07 23:19:45;;;;;;;99.60;39.10;;;;;;;6.91;100.00;100483.79;661948;1310;139884;-79
2023/01/07 23:34:48;;;;;;;97.50;38.10;;;;;;;6.99;100.00;100470.48;661944;1296;139600;-79
2023/01/07 23:49:52;;;;;;;89.70;35.30;;;;;;;6.99;100.00;100449.30;662059;1309;139749;-80
